Игнатьево

Карта отелей и гостиниц, располагающихся рядом с аэропортом Игнатьево :

Игнатьево
Благовещенск
Амурская область 50° 25' 31.6812" N, 127° 24' 44.8812" E
Код аэродрома ИКАО
UHBB
Код аэродрома RU
УХББ
Координаты
N50.42547° E127.41247°
Превышение над уровнем моря
188
Основная полоса
18/36
Курс магнитный
180,4/000,4
Длина основной ВПП
2806
Ширина основной ВПП
45
Покрытие основной ВПП
Твёрдое (асфальт)
Освещение ВПП
Постоянное
Тип: 
Аэродром
Класс аэродрома: 
Международный
Принадлежность: 
ГА
Статус: 
Действующий
Сайт: 
http://www.amurair.ru/
E-mail аэродрома: 
bqs@amurair.ru
Страна: 
Россия
Регион: 
Амурская область
Город: 
Благовещенск
Дополнительная информация: 
Военный индекс: ЬХББ/XHBB. Оператор: ГУП Амурской области "Аэропорт Благовещенск". Международный аэропорт федерального значения. В декабре 2010 был введён в строй новый аэровокзал пропускной способностью 300 чел./час. Обустроено 44 МС.
Схемы аэропортов: 
Погода: 

Авиационная погода в Игнатьево

Регион: 
Погода METAR: 
UHBB 290100Z 36004MPS 9999 SCT033 00/M06 Q1025 R36/090060 NOSIG RMK QFE751/1001
Время наблюдения
2020-10-29T01:00:00Z
Температура C
0.0
Точка росы
-6.0
Направление ветра
360
Скорость ветра (узлы)
8
Метео видимость
6.21
Явления погоды
Условия полета
VFR
Аэропорт подробнее: 

Найти трансфер

С помощью этой формы Вы можете найти трансфер из аэропорта Игнатьево в город, аэропорт или вокзал:

Карта места

Javascript is required to view this map.

Погода в аэропортах:

Авиационная погода в Емельяново

Регион: 
Погода METAR: 
UNKL 290100Z 23005G10MPS 180V250 3100 1100W SHSN VV005 00/M01 Q1014 R29/490245 TEMPO 25010G18MPS 0800 +SHSN BKN011 BKN016CB RMK QFE735
Время наблюдения
2020-10-29T01:00:00Z
Температура C
0.0
Точка росы
-1.0
Направление ветра
230
Скорость ветра (узлы)
10
Метео видимость
1.93
Явления погоды
SHSN
Условия полета
LIFR
Аэропорт подробнее: 

Авиационная погода в Усть-Каменогорске

Регион: 
Погода METAR: 
UASK 290100Z 20003MPS 2200 SHSN OVC031CB M02/M02 Q1031 R30/520342 TEMPO 2500 -SHSN BR SCT004 BKN011CB RMK QFE747/0997
Время наблюдения
2020-10-29T01:00:00Z
Температура C
-2.0
Точка росы
-2.0
Направление ветра
200
Скорость ветра (узлы)
6
Метео видимость
1.37
Явления погоды
SHSN
Условия полета
IFR
Аэропорт подробнее: 

Авиационная погода в аэропорту Семей

Регион: 
Погода METAR: 
UASS 290100Z 26004MPS 9000 -SN BKN022 M02/M03 Q1031 R26/450248 NOSIG RMK QFE755/1006
Время наблюдения
2020-10-29T01:00:00Z
Температура C
-2.0
Точка росы
-3.0
Направление ветра
260
Скорость ветра (узлы)
8
Метео видимость
5.59
Явления погоды
-SN
Условия полета
MVFR
Аэропорт подробнее: 

Авиационная погода в Вадсё

Регион: 
Погода METAR: 
ENVD 282220Z 26012KT 9999 -SHSN FEW015 SCT022 BKN098 01/M01 Q0995
Время наблюдения
2020-10-28T22:20:00Z
Температура C
1.0
Точка росы
-1.0
Направление ветра
260
Скорость ветра (узлы)
12
Метео видимость
6.21
Явления погоды
-SHSN
Условия полета
VFR